createdAt,value
2022-09-26T00:01:05.671Z,-45
2022-09-26T00:02:11.801Z,-45
2022-09-26T00:03:18.068Z,-46
2022-09-26T00:04:24.325Z,-47
2022-09-26T00:05:30.605Z,-45
2022-09-26T00:06:36.870Z,-44
2022-09-26T00:07:43.140Z,-46
2022-09-26T00:08:49.415Z,-45
2022-09-26T00:09:55.754Z,-44
2022-09-26T00:11:01.999Z,-45
2022-09-26T00:12:07.244Z,-46
2022-09-26T00:13:13.527Z,-46
2022-09-26T00:14:19.799Z,-46
2022-09-26T00:15:26.063Z,-46
2022-09-26T00:16:32.335Z,-45
2022-09-26T00:17:38.621Z,-45
2022-09-26T00:18:44.894Z,-45
2022-09-26T00:19:50.210Z,-44
2022-09-26T00:20:55.469Z,-45
2022-09-26T00:22:01.778Z,-42
2022-09-26T00:23:08.014Z,-46
2022-09-26T00:24:14.288Z,-45
2022-09-26T00:25:20.576Z,-44
2022-09-26T00:26:26.880Z,-45
2022-09-26T00:27:33.096Z,-45
2022-09-26T00:28:39.375Z,-45
2022-09-26T00:29:45.739Z,-46
2022-09-26T00:30:51.954Z,-45
2022-09-26T00:31:58.192Z,-46
2022-09-26T00:33:04.455Z,-45
2022-09-26T00:34:10.764Z,-45
2022-09-26T00:35:16.035Z,-45
2022-09-26T00:36:22.297Z,-45
2022-09-26T00:37:28.573Z,-45
2022-09-26T00:38:34.834Z,-45
2022-09-26T00:39:41.107Z,-46
2022-09-26T00:40:47.377Z,-44
2022-09-26T00:41:53.657Z,-46
2022-09-26T00:42:58.963Z,-46
2022-09-26T00:44:04.243Z,-41
2022-09-26T00:45:09.536Z,-46
2022-09-26T00:46:14.829Z,-46
2022-09-26T00:47:20.129Z,-45
2022-09-26T00:48:25.425Z,-44
2022-09-26T00:49:31.715Z,-45
2022-09-26T00:50:37.957Z,-45
2022-09-26T00:51:44.242Z,-46
2022-09-26T00:52:50.544Z,-44
2022-09-26T00:53:56.780Z,-43
2022-09-26T00:55:03.054Z,-45
2022-09-26T00:56:09.323Z,-44
2022-09-26T00:57:15.625Z,-46
2022-09-26T00:58:21.864Z,-46
2022-09-26T00:59:28.132Z,-44
2022-09-26T01:00:34.409Z,-46
2022-09-26T01:01:40.723Z,-44
2022-09-26T01:02:45.966Z,-43
2022-09-26T01:03:52.247Z,-43
2022-09-26T01:04:58.512Z,-46
2022-09-26T01:06:04.783Z,-45
2022-09-26T01:07:11.106Z,-46
2022-09-26T01:08:17.334Z,-44
2022-09-26T01:09:23.633Z,-43
2022-09-26T01:10:28.898Z,-44
2022-09-26T01:11:35.207Z,-43
2022-09-26T01:12:40.482Z,-46
2022-09-26T01:13:45.801Z,-45
2022-09-26T01:14:52.036Z,-44
2022-09-26T01:15:58.305Z,-45
2022-09-26T01:17:04.615Z,-44
2022-09-26T01:18:10.868Z,-46
2022-09-26T01:19:17.126Z,-45
2022-09-26T01:20:23.390Z,-46
2022-09-26T01:21:29.675Z,-45
2022-09-26T01:22:35.940Z,-45
2022-09-26T01:23:42.229Z,-46
2022-09-26T01:24:48.483Z,-45
2022-09-26T01:25:54.775Z,-45
2022-09-26T01:27:01.039Z,-45
2022-09-26T01:28:06.324Z,-45
2022-09-26T01:29:12.589Z,-44
2022-09-26T01:30:18.859Z,-46
2022-09-26T01:31:25.171Z,-44
2022-09-26T01:32:31.435Z,-45
2022-09-26T01:33:37.690Z,-45
2022-09-26T01:34:43.973Z,-44
2022-09-26T01:35:49.269Z,-45
2022-09-26T01:36:54.544Z,-46
2022-09-26T01:38:00.822Z,-44
2022-09-26T01:39:07.074Z,-45
2022-09-26T01:40:13.353Z,-44
2022-09-26T01:41:19.623Z,-45
2022-09-26T01:42:25.918Z,-48
2022-09-26T01:43:32.166Z,-45
2022-09-26T01:44:38.436Z,-45
2022-09-26T01:45:44.713Z,-46
2022-09-26T01:46:50.991Z,-47
2022-09-26T01:47:57.257Z,-46
2022-09-26T01:49:03.584Z,-45
2022-09-26T01:50:09.849Z,-45
2022-09-26T01:51:15.081Z,-45
2022-09-26T01:52:21.388Z,-45
2022-09-26T01:53:27.628Z,-46
2022-09-26T01:54:33.915Z,-45
2022-09-26T01:55:40.242Z,-45
2022-09-26T01:56:46.448Z,-45
2022-09-26T01:57:52.726Z,-45
2022-09-26T01:58:58.020Z,-44
2022-09-26T02:00:03.343Z,-45
2022-09-26T02:01:08.607Z,-46
2022-09-26T02:02:13.905Z,-46
2022-09-26T02:03:19.258Z,-45
2022-09-26T02:04:24.514Z,-45
2022-09-26T02:05:30.794Z,-46
2022-09-26T02:06:37.086Z,-45
2022-09-26T02:07:43.308Z,-45
2022-09-26T02:08:49.566Z,-44
2022-09-26T02:09:55.839Z,-46
2022-09-26T02:11:02.148Z,-46
2022-09-26T02:12:08.388Z,-46
2022-09-26T02:13:14.657Z,-45
2022-09-26T02:14:20.944Z,-46
2022-09-26T02:15:27.221Z,-46
2022-09-26T02:16:33.478Z,-44
2022-09-26T02:17:39.757Z,-44
2022-09-26T02:18:45.041Z,-46
2022-09-26T02:19:51.321Z,-46
2022-09-26T02:20:57.583Z,-46
2022-09-26T02:22:03.872Z,-46
2022-09-26T02:23:10.124Z,-46
2022-09-26T02:24:16.397Z,-46
2022-09-26T02:25:22.676Z,-45
2022-09-26T02:26:27.972Z,-45
2022-09-26T02:27:33.283Z,-46
2022-09-26T02:28:38.554Z,-45
2022-09-26T02:29:43.853Z,-45
2022-09-26T02:30:50.152Z,-46
2022-09-26T02:31:56.410Z,-45
2022-09-26T02:33:02.665Z,-46
2022-09-26T02:34:08.931Z,-45
2022-09-26T02:35:15.213Z,-45
2022-09-26T02:36:21.475Z,-45
2022-09-26T02:37:27.747Z,-46
2022-09-26T02:38:34.018Z,-46
2022-09-26T02:39:40.295Z,-46
2022-09-26T02:40:46.568Z,-46
2022-09-26T02:41:52.842Z,-47
2022-09-26T02:42:59.112Z,-46
2022-09-26T02:44:04.398Z,-46
2022-09-26T02:45:10.670Z,-46
2022-09-26T02:46:16.940Z,-46
2022-09-26T02:47:23.238Z,-46
2022-09-26T02:48:29.518Z,-46
2022-09-26T02:49:35.759Z,-47
2022-09-26T02:50:42.034Z,-46
2022-09-26T02:51:47.348Z,-46
2022-09-26T02:52:52.623Z,-46
2022-09-26T02:53:57.936Z,-46
2022-09-26T02:55:03.210Z,-46
2022-09-26T02:56:09.478Z,-45
2022-09-26T02:57:15.756Z,-46
2022-09-26T02:58:22.019Z,-46
2022-09-26T02:59:28.323Z,-47
2022-09-26T03:00:34.569Z,-47
2022-09-26T03:01:40.839Z,-47
2022-09-26T03:02:47.117Z,-47
2022-09-26T03:03:53.403Z,-46
2022-09-26T03:04:59.696Z,-46
2022-09-26T03:06:05.936Z,-47
2022-09-26T03:07:12.202Z,-46
2022-09-26T03:08:18.486Z,-47
2022-09-26T03:09:23.766Z,-47
2022-09-26T03:10:30.036Z,-45
2022-09-26T03:11:36.313Z,-47
2022-09-26T03:12:42.635Z,-46
2022-09-26T03:13:48.852Z,-47
2022-09-26T03:14:55.119Z,-47
2022-09-26T03:16:01.461Z,-47
2022-09-26T03:17:06.722Z,-48
2022-09-26T03:18:11.986Z,-46
2022-09-26T03:19:18.250Z,-49
2022-09-26T03:20:23.552Z,-48
2022-09-26T03:21:28.837Z,-47
2022-09-26T03:22:35.115Z,-47
2022-09-26T03:23:41.384Z,-46
2022-09-26T03:24:47.662Z,-48
2022-09-26T03:25:53.976Z,-47
2022-09-26T03:27:00.239Z,-48
2022-09-26T03:28:06.487Z,-47
2022-09-26T03:29:12.739Z,-46
2022-09-26T03:30:19.067Z,-47
2022-09-26T03:31:25.290Z,-46
2022-09-26T03:32:31.568Z,-47
2022-09-26T03:33:37.826Z,-47
2022-09-26T03:34:43.203Z,-47
2022-09-26T03:35:49.393Z,-49
2022-09-26T03:36:55.671Z,-47
2022-09-26T03:38:01.940Z,-46
2022-09-26T03:39:08.216Z,-46
2022-09-26T03:40:14.552Z,-46
2022-09-26T03:41:20.754Z,-48
2022-09-26T03:42:27.031Z,-47
2022-09-26T03:43:32.331Z,-46
2022-09-26T03:44:37.640Z,-46
2022-09-26T03:45:42.917Z,-47
2022-09-26T03:46:48.241Z,-48
2022-09-26T03:47:54.479Z,-46
2022-09-26T03:49:00.744Z,-47
2022-09-26T03:50:07.018Z,-49
2022-09-26T03:51:13.289Z,-47
2022-09-26T03:52:19.589Z,-47
2022-09-26T03:53:25.841Z,-47
2022-09-26T03:54:32.116Z,-46
2022-09-26T03:55:38.389Z,-47
2022-09-26T03:56:44.651Z,-46
2022-09-26T03:57:50.923Z,-48
2022-09-26T03:58:57.219Z,-49
2022-09-26T04:00:03.465Z,-47
2022-09-26T04:01:08.771Z,-47
2022-09-26T04:02:15.060Z,-47
2022-09-26T04:03:21.326Z,-46
2022-09-26T04:04:27.574Z,-46
2022-09-26T04:05:33.851Z,-46
2022-09-26T04:06:40.132Z,-48
2022-09-26T04:07:46.393Z,-46
2022-09-26T04:08:51.693Z,-46
2022-09-26T04:09:56.978Z,-46
2022-09-26T04:11:02.278Z,-46
2022-09-26T04:12:07.566Z,-47
2022-09-26T04:13:13.841Z,-46
2022-09-26T04:14:20.114Z,-47
2022-09-26T04:15:26.386Z,-47
2022-09-26T04:16:32.690Z,-46
2022-09-26T04:17:38.926Z,-47
2022-09-26T04:18:45.199Z,-47
2022-09-26T04:19:51.472Z,-47
2022-09-26T04:20:57.760Z,-46
2022-09-26T04:22:04.020Z,-47
2022-09-26T04:23:10.290Z,-45
2022-09-26T04:24:16.559Z,-46
2022-09-26T04:25:22.837Z,-46
2022-09-26T04:26:28.133Z,-47
2022-09-26T04:27:34.398Z,-47
2022-09-26T04:28:40.663Z,-46
2022-09-26T04:29:46.939Z,-47
2022-09-26T04:30:53.209Z,-46
2022-09-26T04:31:59.497Z,-46
2022-09-26T04:33:05.751Z,-45
2022-09-26T04:34:11.065Z,-46
2022-09-26T04:35:16.338Z,-47
2022-09-26T04:36:21.646Z,-46
2022-09-26T04:37:26.926Z,-46
2022-09-26T04:38:33.242Z,-48
2022-09-26T04:39:39.517Z,-46
2022-09-26T04:40:45.753Z,-47
2022-09-26T04:41:52.031Z,-47
2022-09-26T04:42:58.291Z,-48
2022-09-26T04:44:04.576Z,-47
2022-09-26T04:45:10.837Z,-47
2022-09-26T04:46:17.106Z,-46
2022-09-26T04:47:23.389Z,-46
2022-09-26T04:48:29.665Z,-47
2022-09-26T04:49:35.926Z,-46
2022-09-26T04:50:42.206Z,-47
2022-09-26T04:51:47.483Z,-47
2022-09-26T04:52:53.753Z,-47
2022-09-26T04:54:00.072Z,-46
2022-09-26T04:55:06.297Z,-48
2022-09-26T04:56:12.573Z,-47
2022-09-26T04:57:18.844Z,-47
2022-09-26T04:58:25.180Z,-47
2022-09-26T04:59:30.416Z,-47
2022-09-26T05:00:35.765Z,-47
2022-09-26T05:01:41.977Z,-46
2022-09-26T05:02:48.250Z,-47
2022-09-26T05:03:54.554Z,-47
2022-09-26T05:05:00.815Z,-46
2022-09-26T05:06:07.108Z,-48
2022-09-26T05:07:13.353Z,-48
2022-09-26T05:08:19.606Z,-47
2022-09-26T05:09:25.936Z,-48
2022-09-26T05:10:32.181Z,-46
2022-09-26T05:11:38.438Z,-46
2022-09-26T05:12:44.698Z,-48
2022-09-26T05:13:50.993Z,-46
2022-09-26T05:14:56.255Z,-48
2022-09-26T05:16:02.566Z,-48
2022-09-26T05:17:08.831Z,-46
2022-09-26T05:18:15.071Z,-48
2022-09-26T05:19:21.348Z,-48
2022-09-26T05:20:27.622Z,-48
2022-09-26T05:21:33.892Z,-46
2022-09-26T05:22:39.222Z,-48
2022-09-26T05:23:44.504Z,-46
2022-09-26T05:24:49.805Z,-51
2022-09-26T05:25:55.073Z,-46
2022-09-26T05:27:01.341Z,-48
2022-09-26T05:28:07.624Z,-47
2022-09-26T05:29:12.933Z,-47
2022-09-26T05:30:18.197Z,-47
2022-09-26T05:31:24.473Z,-47
2022-09-26T05:32:30.752Z,-47
2022-09-26T05:33:37.038Z,-47
2022-09-26T05:34:43.286Z,-48
2022-09-26T05:35:49.584Z,-47
2022-09-26T05:36:55.848Z,-48
2022-09-26T05:38:02.104Z,-46
2022-09-26T05:39:08.378Z,-46
2022-09-26T05:40:14.645Z,-47
2022-09-26T05:41:20.934Z,-46
2022-09-26T05:42:27.191Z,-47
2022-09-26T05:43:33.491Z,-46
2022-09-26T05:44:38.827Z,-47
2022-09-26T05:45:45.033Z,-48
2022-09-26T05:46:51.341Z,-46
2022-09-26T05:47:57.605Z,-47
2022-09-26T05:49:03.844Z,-47
2022-09-26T05:50:10.108Z,-46
2022-09-26T05:51:16.424Z,-47
2022-09-26T05:52:21.686Z,-47
2022-09-26T05:53:26.967Z,-46
2022-09-26T05:54:33.275Z,-47
2022-09-26T05:55:38.583Z,-47
2022-09-26T05:56:43.840Z,-46
2022-09-26T05:57:50.216Z,-48
2022-09-26T05:58:56.378Z,-47
2022-09-26T06:00:02.662Z,-46
2022-09-26T06:01:08.929Z,-47
2022-09-26T06:02:15.195Z,-46
2022-09-26T06:03:21.464Z,-46
2022-09-26T06:04:27.736Z,-46
2022-09-26T06:05:34.030Z,-46
2022-09-26T06:06:40.338Z,-46
2022-09-26T06:07:46.587Z,-47
2022-09-26T06:08:52.893Z,-47
2022-09-26T06:09:59.088Z,-46
2022-09-26T06:11:04.384Z,-46
2022-09-26T06:12:10.653Z,-46
2022-09-26T06:13:16.927Z,-46
2022-09-26T06:14:23.225Z,-46
2022-09-26T06:15:29.485Z,-47
2022-09-26T06:16:35.782Z,-46
2022-09-26T06:17:42.026Z,-47
2022-09-26T06:18:47.355Z,-46
2022-09-26T06:19:52.673Z,-47
2022-09-26T06:20:58.880Z,-46
2022-09-26T06:22:05.192Z,-46
2022-09-26T06:23:11.427Z,-46
2022-09-26T06:24:17.759Z,-46
2022-09-26T06:25:23.982Z,-46
2022-09-26T06:26:30.242Z,-48
2022-09-26T06:27:36.527Z,-46
2022-09-26T06:28:42.807Z,-46
2022-09-26T06:29:49.093Z,-46
2022-09-26T06:30:55.382Z,-46
2022-09-26T06:32:01.620Z,-46
2022-09-26T06:33:07.871Z,-46
2022-09-26T06:34:13.207Z,-46
2022-09-26T06:35:19.431Z,-47
2022-09-26T06:36:25.715Z,-46
2022-09-26T06:37:31.976Z,-48
2022-09-26T06:38:38.250Z,-46
2022-09-26T06:39:44.518Z,-46
2022-09-26T06:40:50.790Z,-46
2022-09-26T06:41:56.109Z,-46
2022-09-26T06:43:01.382Z,-46
2022-09-26T06:44:06.671Z,-48
2022-09-26T06:45:11.967Z,-46
2022-09-26T06:46:18.244Z,-46
2022-09-26T06:47:24.549Z,-46
2022-09-26T06:48:29.914Z,-46
2022-09-26T06:49:35.103Z,-45
2022-09-26T06:50:41.367Z,-46
2022-09-26T06:51:47.642Z,-46
2022-09-26T06:52:53.989Z,-46
2022-09-26T06:54:00.255Z,-45
2022-09-26T06:55:06.461Z,-43
2022-09-26T06:56:12.763Z,-46
2022-09-26T06:57:18.997Z,-48
2022-09-26T06:58:25.333Z,-47
2022-09-26T06:59:31.611Z,-46
2022-09-26T07:00:37.891Z,-46
2022-09-26T07:01:44.179Z,-46
2022-09-26T07:02:50.360Z,-46
2022-09-26T07:03:55.687Z,-47
2022-09-26T07:05:01.928Z,-46
2022-09-26T07:06:08.226Z,-46
2022-09-26T07:07:14.487Z,-45
2022-09-26T07:08:20.783Z,-44
2022-09-26T07:09:27.017Z,-45
2022-09-26T07:10:33.287Z,-46
2022-09-26T07:11:38.580Z,-46
2022-09-26T07:12:43.876Z,-44
2022-09-26T07:13:50.147Z,-44
2022-09-26T07:14:55.505Z,-45
2022-09-26T07:16:01.724Z,-46
2022-09-26T07:17:07.020Z,-46
2022-09-26T07:18:13.287Z,-44
2022-09-26T07:19:19.553Z,-44
2022-09-26T07:20:25.830Z,-45
2022-09-26T07:21:32.100Z,-45
2022-09-26T07:22:38.417Z,-45
2022-09-26T07:23:44.656Z,-45
2022-09-26T07:24:50.916Z,-46
2022-09-26T07:25:57.185Z,-45
2022-09-26T07:27:03.465Z,-44
2022-09-26T07:28:09.743Z,-45
2022-09-26T07:29:16.020Z,-44
2022-09-26T07:30:22.323Z,-45
2022-09-26T07:31:27.569Z,-45
2022-09-26T07:32:33.846Z,-45
2022-09-26T07:33:40.141Z,-46
2022-09-26T07:34:46.389Z,-46
2022-09-26T07:35:52.650Z,-43
2022-09-26T07:36:58.957Z,-44
2022-09-26T07:38:04.244Z,-45
2022-09-26T07:39:09.514Z,-46
2022-09-26T07:40:15.791Z,-48
2022-09-26T07:41:22.080Z,-45
2022-09-26T07:42:28.335Z,-44
2022-09-26T07:43:33.630Z,-44
2022-09-26T07:44:38.933Z,-45
2022-09-26T07:45:45.191Z,-43
2022-09-26T07:46:51.469Z,-46
2022-09-26T07:47:57.730Z,-43
2022-09-26T07:49:04.008Z,-45
2022-09-26T07:50:10.309Z,-43
2022-09-26T07:51:16.554Z,-43
2022-09-26T07:52:22.822Z,-43
2022-09-26T07:53:29.104Z,-47
2022-09-26T07:54:35.371Z,-43
2022-09-26T07:55:41.639Z,-44
2022-09-26T07:56:47.915Z,-43
2022-09-26T07:57:54.183Z,-44
2022-09-26T07:58:59.473Z,-43
2022-09-26T08:00:05.754Z,-44
2022-09-26T08:01:12.011Z,-44
2022-09-26T08:02:18.289Z,-44
2022-09-26T08:03:24.577Z,-44
2022-09-26T08:04:30.837Z,-43
2022-09-26T08:05:37.142Z,-43
2022-09-26T08:06:42.439Z,-43
2022-09-26T08:07:47.711Z,-43
2022-09-26T08:08:52.989Z,-40
2022-09-26T08:09:58.273Z,-43
2022-09-26T08:11:04.551Z,-42
2022-09-26T08:12:10.825Z,-43
2022-09-26T08:13:17.144Z,-42
2022-09-26T08:14:23.441Z,-43
2022-09-26T08:15:29.643Z,-43
2022-09-26T08:16:35.910Z,-43
2022-09-26T08:17:42.210Z,-42
2022-09-26T08:18:48.497Z,-43
2022-09-26T08:19:54.751Z,-43
2022-09-26T08:21:01.005Z,-44
2022-09-26T08:22:07.274Z,-42
2022-09-26T08:23:13.555Z,-42
2022-09-26T08:24:18.832Z,-43
2022-09-26T08:25:25.104Z,-43
2022-09-26T08:26:31.402Z,-43
2022-09-26T08:27:37.654Z,-41
2022-09-26T08:28:43.929Z,-42
2022-09-26T08:29:50.221Z,-43
2022-09-26T08:30:56.482Z,-42
2022-09-26T08:32:01.764Z,-41
2022-09-26T08:33:07.053Z,-42
2022-09-26T08:34:13.324Z,-43
2022-09-26T08:35:19.593Z,-41
2022-09-26T08:36:25.867Z,-42
2022-09-26T08:37:32.138Z,-43
2022-09-26T08:38:37.458Z,-43
2022-09-26T08:39:42.747Z,-41
2022-09-26T08:40:49.015Z,-43
2022-09-26T08:41:55.269Z,-43
2022-09-26T08:43:01.548Z,-43
2022-09-26T08:44:07.835Z,-43
2022-09-26T08:45:14.089Z,-43
2022-09-26T08:46:20.363Z,-43
2022-09-26T08:47:26.642Z,-43
2022-09-26T08:48:32.911Z,-42
2022-09-26T08:49:39.181Z,-42
2022-09-26T08:50:45.449Z,-43
2022-09-26T08:51:51.724Z,-43
2022-09-26T08:52:58.014Z,-41
2022-09-26T08:54:03.280Z,-41
2022-09-26T08:55:09.548Z,-42
2022-09-26T08:56:15.853Z,-42
2022-09-26T08:57:22.103Z,-42
2022-09-26T08:58:28.390Z,-42
2022-09-26T08:59:34.675Z,-41
2022-09-26T09:00:40.958Z,-42
2022-09-26T09:01:47.185Z,-41
2022-09-26T09:02:53.496Z,-43
2022-09-26T09:03:59.737Z,-40
2022-09-26T09:05:06.002Z,-42
2022-09-26T09:06:12.296Z,-41
2022-09-26T09:07:18.603Z,-42
2022-09-26T09:08:23.889Z,-40
2022-09-26T09:09:29.290Z,-43
2022-09-26T09:10:34.420Z,-42
2022-09-26T09:11:40.699Z,-41
2022-09-26T09:12:46.037Z,-42
2022-09-26T09:13:51.352Z,-42
2022-09-26T09:14:57.556Z,-42
2022-09-26T09:16:03.829Z,-41
2022-09-26T09:17:10.220Z,-42
2022-09-26T09:18:16.487Z,-40
2022-09-26T09:19:22.661Z,-40
2022-09-26T09:20:29.030Z,-40
2022-09-26T09:21:35.323Z,-40
2022-09-26T09:22:41.455Z,-39
2022-09-26T09:23:47.730Z,-41
2022-09-26T09:24:54.103Z,-40
2022-09-26T09:26:00.395Z,-40
2022-09-26T09:27:06.554Z,-40
2022-09-26T09:28:12.818Z,-40
2022-09-26T09:29:18.102Z,-40
2022-09-26T09:30:24.387Z,-37
2022-09-26T09:31:30.648Z,-40
2022-09-26T09:32:36.922Z,-39
2022-09-26T09:33:43.205Z,-40
2022-09-26T09:34:49.474Z,-39
2022-09-26T09:35:55.753Z,-39
2022-09-26T09:37:02.017Z,-38
2022-09-26T09:38:08.301Z,-39
2022-09-26T09:39:14.567Z,-39
2022-09-26T09:40:20.828Z,-39
2022-09-26T09:41:27.102Z,-39
2022-09-26T09:42:33.375Z,-38
2022-09-26T09:43:38.662Z,-39
2022-09-26T09:44:44.935Z,-38
2022-09-26T09:45:51.199Z,-39
2022-09-26T09:46:57.475Z,-37
2022-09-26T09:48:02.780Z,-37
2022-09-26T09:49:08.068Z,-37
2022-09-26T09:50:13.444Z,-36
2022-09-26T09:51:18.648Z,-36
2022-09-26T09:52:24.923Z,-35
2022-09-26T09:53:31.194Z,-37
2022-09-26T09:54:37.469Z,-37
2022-09-26T09:55:43.777Z,-37
2022-09-26T09:56:50.012Z,-40
2022-09-26T09:57:56.280Z,-37
2022-09-26T09:59:02.577Z,-38
2022-09-26T10:00:08.851Z,-39
2022-09-26T10:01:15.098Z,-37
2022-09-26T10:02:21.368Z,-38
2022-09-26T10:03:27.644Z,-39
2022-09-26T10:04:33.909Z,-37
2022-09-26T10:05:39.207Z,-38
2022-09-26T10:06:45.474Z,-38
2022-09-26T10:07:51.746Z,-38
2022-09-26T10:08:58.017Z,-37
2022-09-26T10:10:04.301Z,-37
2022-09-26T10:11:10.556Z,-37
2022-09-26T10:12:16.833Z,-38
2022-09-26T10:13:23.105Z,-38
2022-09-26T10:14:29.386Z,-37
2022-09-26T10:15:35.653Z,-38
2022-09-26T10:16:41.925Z,-38
2022-09-26T10:17:48.189Z,-39
2022-09-26T10:18:54.471Z,-39
2022-09-26T10:19:59.825Z,-38
2022-09-26T10:21:06.030Z,-37
2022-09-26T10:22:12.331Z,-39
2022-09-26T10:23:18.575Z,-37
2022-09-26T10:24:24.843Z,-39
2022-09-26T10:25:31.113Z,-37
2022-09-26T10:26:37.391Z,-38
2022-09-26T10:27:43.672Z,-37
2022-09-26T10:28:49.933Z,-38
2022-09-26T10:29:56.202Z,-38
2022-09-26T10:31:02.474Z,-38
2022-09-26T10:32:08.745Z,-37
2022-09-26T10:33:15.035Z,-39
2022-09-26T10:34:20.303Z,-39
2022-09-26T10:35:26.581Z,-38
2022-09-26T10:36:32.870Z,-38
2022-09-26T10:37:39.140Z,-37
2022-09-26T10:38:45.427Z,-38
2022-09-26T10:39:51.673Z,-38
2022-09-26T10:40:57.943Z,-38
2022-09-26T10:42:04.270Z,-37
2022-09-26T10:43:10.493Z,-37
2022-09-26T10:44:16.752Z,-38
2022-09-26T10:45:23.085Z,-39
2022-09-26T10:46:29.301Z,-38
2022-09-26T10:47:35.619Z,-37
2022-09-26T10:48:40.868Z,-37
2022-09-26T10:49:46.156Z,-37
2022-09-26T10:50:52.434Z,-39
2022-09-26T10:51:58.705Z,-38
2022-09-26T10:53:04.982Z,-37
2022-09-26T10:54:11.248Z,-36
2022-09-26T10:55:17.524Z,-38
2022-09-26T10:56:23.799Z,-38
2022-09-26T10:57:30.140Z,-38
2022-09-26T10:58:35.399Z,-37
2022-09-26T10:59:41.666Z,-37
2022-09-26T11:00:47.909Z,-37
2022-09-26T11:01:54.181Z,-40
2022-09-26T11:03:00.455Z,-37
2022-09-26T11:04:06.717Z,-38
2022-09-26T11:05:12.992Z,-38
2022-09-26T11:06:19.262Z,-35
2022-09-26T11:07:25.549Z,-37
2022-09-26T11:08:31.803Z,-37
2022-09-26T11:09:38.078Z,-37
2022-09-26T11:10:44.381Z,-37
2022-09-26T11:11:49.649Z,-37
2022-09-26T11:12:54.945Z,-35
2022-09-26T11:14:01.215Z,-37
2022-09-26T11:15:06.529Z,-37
2022-09-26T11:16:11.817Z,-37
2022-09-26T11:17:18.135Z,-37
2022-09-26T11:18:24.344Z,-37
2022-09-26T11:19:30.615Z,-37
2022-09-26T11:20:36.892Z,-37
2022-09-26T11:21:43.158Z,-37
2022-09-26T11:22:49.446Z,-36
2022-09-26T11:23:55.711Z,-37
2022-09-26T11:25:01.978Z,-37
2022-09-26T11:26:08.257Z,-37
2022-09-26T11:27:14.519Z,-36
2022-09-26T11:28:20.790Z,-37
2022-09-26T11:29:27.063Z,-37
2022-09-26T11:30:32.351Z,-38
2022-09-26T11:31:38.629Z,-36
2022-09-26T11:32:44.958Z,-37
2022-09-26T11:33:51.162Z,-36
2022-09-26T11:34:57.431Z,-37
2022-09-26T11:36:03.728Z,-37
2022-09-26T11:37:09.987Z,-37
2022-09-26T11:38:15.308Z,-37
2022-09-26T11:39:20.573Z,-42
2022-09-26T11:40:26.880Z,-37
2022-09-26T11:41:32.143Z,-35
2022-09-26T11:42:37.450Z,-35
2022-09-26T11:43:43.724Z,-36
2022-09-26T11:44:49.980Z,-37
2022-09-26T11:45:56.249Z,-37
2022-09-26T11:47:02.522Z,-37
2022-09-26T11:48:08.798Z,-37
2022-09-26T11:49:15.059Z,-38
2022-09-26T11:50:21.334Z,-37
2022-09-26T11:51:27.610Z,-37
2022-09-26T11:52:33.895Z,-38
2022-09-26T11:53:40.165Z,-38
2022-09-26T11:54:46.445Z,-37
2022-09-26T11:55:52.691Z,-37
2022-09-26T11:56:58.014Z,-36
2022-09-26T11:58:04.255Z,-36
2022-09-26T11:59:10.533Z,-36
2022-09-26T12:00:16.824Z,-37
2022-09-26T12:01:23.071Z,-34
2022-09-26T12:02:29.345Z,-35
2022-09-26T12:03:35.652Z,-35
2022-09-26T12:04:40.953Z,-35
2022-09-26T12:05:46.206Z,-34
2022-09-26T12:06:51.503Z,-35
2022-09-26T12:07:56.806Z,-35
2022-09-26T12:09:03.098Z,-35
2022-09-26T12:10:09.377Z,-35
2022-09-26T12:11:15.622Z,-36
2022-09-26T12:12:21.880Z,-36
2022-09-26T12:13:28.228Z,-35
2022-09-26T12:14:34.426Z,-34
2022-09-26T12:15:40.701Z,-32
2022-09-26T12:16:46.975Z,-34
2022-09-26T12:17:53.264Z,-34
2022-09-26T12:18:59.520Z,-32
2022-09-26T12:20:05.790Z,-32
2022-09-26T12:21:12.074Z,-34
2022-09-26T12:22:17.376Z,-32
2022-09-26T12:23:23.693Z,-32
2022-09-26T12:24:29.888Z,-31
2022-09-26T12:25:36.166Z,-33
2022-09-26T12:26:42.473Z,-31
2022-09-26T12:27:48.715Z,-32
2022-09-26T12:28:55.004Z,-31
2022-09-26T12:30:00.346Z,-31
2022-09-26T12:31:05.563Z,-32
2022-09-26T12:32:10.864Z,-32
2022-09-26T12:33:16.155Z,-32
2022-09-26T12:34:22.455Z,-31
2022-09-26T12:35:28.693Z,-31
2022-09-26T12:36:34.968Z,-32
2022-09-26T12:37:41.246Z,-31
2022-09-26T12:38:47.509Z,-31
2022-09-26T12:39:53.789Z,-31
2022-09-26T12:41:00.066Z,-30
2022-09-26T12:42:06.349Z,-31
2022-09-26T12:43:12.602Z,-31
2022-09-26T12:44:18.881Z,-31
2022-09-26T12:45:25.150Z,-31
2022-09-26T12:46:31.427Z,-31
2022-09-26T12:47:36.712Z,-31
2022-09-26T12:48:42.980Z,-31
2022-09-26T12:49:49.279Z,-31
2022-09-26T12:50:55.552Z,-31
2022-09-26T12:52:01.798Z,-30
2022-09-26T12:53:08.063Z,-29
2022-09-26T12:54:14.344Z,-28
2022-09-26T12:55:19.644Z,-29
2022-09-26T12:56:24.928Z,-28
2022-09-26T12:57:31.201Z,-29
2022-09-26T12:58:36.502Z,-29
2022-09-26T12:59:41.786Z,-28
2022-09-26T13:00:48.059Z,-29
2022-09-26T13:01:54.331Z,-28
2022-09-26T13:03:00.603Z,-28
2022-09-26T13:04:06.887Z,-28
2022-09-26T13:05:13.167Z,-29
2022-09-26T13:06:19.412Z,-29
2022-09-26T13:07:25.714Z,-30
2022-09-26T13:08:31.970Z,-31
2022-09-26T13:09:38.237Z,-31
2022-09-26T13:10:44.516Z,-31
2022-09-26T13:11:50.805Z,-31
2022-09-26T13:12:57.050Z,-31
2022-09-26T13:14:02.349Z,-31
2022-09-26T13:15:08.617Z,-30
2022-09-26T13:16:14.884Z,-31
2022-09-26T13:17:21.154Z,-31
2022-09-26T13:18:27.428Z,-31
2022-09-26T13:19:33.700Z,-31
2022-09-26T13:20:39.979Z,-31
2022-09-26T13:21:46.257Z,-31
2022-09-26T13:22:52.512Z,-32
2022-09-26T13:23:58.780Z,-32
2022-09-26T13:25:05.068Z,-34
2022-09-26T13:26:11.403Z,-31
2022-09-26T13:27:17.661Z,-31
2022-09-26T13:28:22.926Z,-31
2022-09-26T13:29:29.161Z,-31
2022-09-26T13:30:35.444Z,-31
2022-09-26T13:31:41.732Z,-32
2022-09-26T13:32:48.030Z,-31
2022-09-26T13:33:54.284Z,-33
2022-09-26T13:35:00.546Z,-31
2022-09-26T13:36:06.794Z,-33
2022-09-26T13:37:13.063Z,-32
2022-09-26T13:38:19.335Z,-32
2022-09-26T13:39:25.617Z,-31
2022-09-26T13:40:31.884Z,-33
2022-09-26T13:41:38.180Z,-33
2022-09-26T13:42:43.447Z,-33
2022-09-26T13:43:49.832Z,-33
2022-09-26T13:44:55.994Z,-33
2022-09-26T13:46:02.266Z,-34
2022-09-26T13:47:08.524Z,-34
2022-09-26T13:48:14.877Z,-33
2022-09-26T13:49:21.080Z,-35
2022-09-26T13:50:27.349Z,-36
2022-09-26T13:51:33.625Z,-37
2022-09-26T13:52:39.922Z,-39
2022-09-26T13:53:46.163Z,-40
2022-09-26T13:54:52.436Z,-39
2022-09-26T13:55:58.712Z,-38
2022-09-26T13:57:03.998Z,-38
2022-09-26T13:58:10.269Z,-38
2022-09-26T13:59:16.546Z,-38
2022-09-26T14:00:22.822Z,-38
2022-09-26T14:01:29.210Z,-40
2022-09-26T14:02:35.358Z,-38
2022-09-26T14:03:41.705Z,-40
2022-09-26T14:04:47.941Z,-41
2022-09-26T14:05:54.196Z,-40
2022-09-26T14:07:00.449Z,-40
2022-09-26T14:08:06.758Z,-40
2022-09-26T14:09:13.052Z,-40
2022-09-26T14:10:19.259Z,-39
2022-09-26T14:11:24.552Z,-40
2022-09-26T14:12:30.850Z,-40
2022-09-26T14:13:37.089Z,-39
2022-09-26T14:14:43.413Z,-40
2022-09-26T14:15:49.653Z,-39
2022-09-26T14:16:55.932Z,-39
2022-09-26T14:18:02.198Z,-39
2022-09-26T14:19:08.451Z,-39
2022-09-26T14:20:14.751Z,-39
2022-09-26T14:21:20.999Z,-39
2022-09-26T14:22:27.426Z,-38
2022-09-26T14:23:33.591Z,-39
2022-09-26T14:24:39.934Z,-38
2022-09-26T14:25:45.104Z,-39
2022-09-26T14:26:51.498Z,-38
2022-09-26T14:27:57.675Z,-40
2022-09-26T14:29:03.928Z,-37
2022-09-26T14:30:10.200Z,-38
2022-09-26T14:31:16.478Z,-40
2022-09-26T14:32:22.839Z,-38
2022-09-26T14:33:29.014Z,-39
2022-09-26T14:34:35.294Z,-40
2022-09-26T14:35:41.627Z,-39
2022-09-26T14:36:47.851Z,-39
2022-09-26T14:37:54.097Z,-39
2022-09-26T14:39:00.375Z,-39
2022-09-26T14:40:05.695Z,-39
2022-09-26T14:41:11.969Z,-40
2022-09-26T14:42:18.215Z,-39
2022-09-26T14:43:24.492Z,-37
2022-09-26T14:44:30.765Z,-38
2022-09-26T14:45:37.028Z,-37
2022-09-26T14:46:43.357Z,-39
2022-09-26T14:47:49.594Z,-38
2022-09-26T14:48:55.839Z,-38
2022-09-26T14:50:02.149Z,-38
2022-09-26T14:51:08.389Z,-39
2022-09-26T14:52:14.687Z,-38
2022-09-26T14:53:20.943Z,-39
2022-09-26T14:54:26.267Z,-37
2022-09-26T14:55:32.497Z,-37
2022-09-26T14:56:38.771Z,-37
2022-09-26T14:57:45.043Z,-37
2022-09-26T14:58:51.307Z,-37
2022-09-26T14:59:57.581Z,-37
2022-09-26T15:01:03.853Z,-37
2022-09-26T15:02:10.126Z,-37
2022-09-26T15:03:16.403Z,-37
2022-09-26T15:04:22.726Z,-37
2022-09-26T15:05:28.960Z,-37
2022-09-26T15:06:35.215Z,-37
2022-09-26T15:07:41.543Z,-35
2022-09-26T15:08:46.774Z,-37
2022-09-26T15:09:53.040Z,-36
2022-09-26T15:10:59.320Z,-37